sensor_id;sensor_type;location;lat;lon;timestamp;pressure;altitude;pressure_sealevel;temperature;humidity
64025;BME280;50266;57.446;26.936;2023-04-09T00:00:29;100385.77;;;2.11;100.0
64025;BME280;50266;57.446;26.936;2023-04-09T00:01:29;100386.8;;;1.96;100.0
64025;BME280;50266;57.446;26.936;2023-04-09T00:02:29;100386.18;;;2.01;100.0
64025;BME280;50266;57.446;26.936;2023-04-09T00:03:29;100384.62;;;1.99;100.0
64025;BME280;50266;57.446;26.936;2023-04-09T00:04:29;100389.78;;;1.87;100.0
64025;BME280;50266;57.446;26.936;2023-04-09T00:05:29;100389.97;;;1.85;100.0
64025;BME280;50266;57.446;26.936;2023-04-09T00:06:29;100393.0;;;1.91;100.0
64025;BME280;50266;57.446;26.936;2023-04-09T00:07:29;100388.08;;;2.05;100.0
64025;BME280;50266;57.446;26.936;2023-04-09T00:08:29;100388.38;;;2.03;100.0
64025;BME280;50266;57.446;26.936;2023-04-09T00:09:29;100389.1;;;2.11;100.0
64025;BME280;50266;57.446;26.936;2023-04-09T00:10:29;100385.08;;;1.99;100.0
64025;BME280;50266;57.446;26.936;2023-04-09T00:11:29;100387.47;;;1.96;100.0
64025;BME280;50266;57.446;26.936;2023-04-09T00:12:29;100385.95;;;1.98;100.0
64025;BME280;50266;57.446;26.936;2023-04-09T00:13:29;100385.52;;;1.88;100.0
64025;BME280;50266;57.446;26.936;2023-04-09T00:14:30;100388.12;;;1.99;100.0
64025;BME280;50266;57.446;26.936;2023-04-09T00:15:30;100384.05;;;1.98;100.0
64025;BME280;50266;57.446;26.936;2023-04-09T00:16:30;100386.62;;;1.94;100.0
64025;BME280;50266;57.446;26.936;2023-04-09T00:17:30;100384.42;;;1.88;100.0
64025;BME280;50266;57.446;26.936;2023-04-09T00:18:30;100385.5;;;1.89;100.0
64025;BME280;50266;57.446;26.936;2023-04-09T00:19:30;100385.86;;;1.86;100.0
64025;BME280;50266;57.446;26.936;2023-04-09T00:20:30;100383.66;;;1.83;100.0
64025;BME280;50266;57.446;26.936;2023-04-09T00:21:30;100382.48;;;1.97;100.0
64025;BME280;50266;57.446;26.936;2023-04-09T00:22:30;100382.39;;;1.95;100.0
64025;BME280;50266;57.446;26.936;2023-04-09T00:23:30;100383.2;;;1.9;100.0
64025;BME280;50266;57.446;26.936;2023-04-09T00:24:30;100379.95;;;1.83;100.0
64025;BME280;50266;57.446;26.936;2023-04-09T00:25:30;100381.64;;;1.8;100.0
64025;BME280;50266;57.446;26.936;2023-04-09T00:26:30;100384.27;;;1.8;100.0
64025;BME280;50266;57.446;26.936;2023-04-09T00:27:30;100387.16;;;1.64;100.0
64025;BME280;50266;57.446;26.936;2023-04-09T00:28:30;100384.0;;;1.52;100.0
64025;BME280;50266;57.446;26.936;2023-04-09T00:29:30;100383.5;;;1.53;100.0
64025;BME280;50266;57.446;26.936;2023-04-09T00:30:30;100384.06;;;1.63;100.0
64025;BME280;50266;57.446;26.936;2023-04-09T00:31:30;100384.0;;;1.53;100.0
64025;BME280;50266;57.446;26.936;2023-04-09T00:32:30;100382.45;;;1.54;100.0
64025;BME280;50266;57.446;26.936;2023-04-09T00:33:30;100387.16;;;1.6;100.0
64025;BME280;50266;57.446;26.936;2023-04-09T00:34:30;100383.48;;;1.38;100.0
64025;BME280;50266;57.446;26.936;2023-04-09T00:35:30;100384.69;;;1.45;100.0
64025;BME280;50266;57.446;26.936;2023-04-09T00:36:30;100388.17;;;1.46;100.0
64025;BME280;50266;57.446;26.936;2023-04-09T00:37:30;100386.05;;;1.37;100.0
64025;BME280;50266;57.446;26.936;2023-04-09T00:38:30;100383.88;;;1.44;100.0
64025;BME280;50266;57.446;26.936;2023-04-09T00:39:30;100389.38;;;1.45;100.0
64025;BME280;50266;57.446;26.936;2023-04-09T00:40:30;100385.14;;;1.49;100.0
64025;BME280;50266;57.446;26.936;2023-04-09T00:41:30;100389.28;;;1.46;100.0
64025;BME280;50266;57.446;26.936;2023-04-09T00:42:34;100387.56;;;1.42;100.0
64025;BME280;50266;57.446;26.936;2023-04-09T00:43:30;100389.69;;;1.38;100.0
64025;BME280;50266;57.446;26.936;2023-04-09T00:44:30;100392.05;;;1.45;100.0
64025;BME280;50266;57.446;26.936;2023-04-09T00:45:30;100393.02;;;1.35;100.0
64025;BME280;50266;57.446;26.936;2023-04-09T00:46:30;100393.33;;;1.31;100.0
64025;BME280;50266;57.446;26.936;2023-04-09T00:47:30;100390.77;;;1.48;100.0
64025;BME280;50266;57.446;26.936;2023-04-09T00:48:30;100390.06;;;1.52;100.0
64025;BME280;50266;57.446;26.936;2023-04-09T00:49:30;100388.36;;;1.44;100.0
64025;BME280;50266;57.446;26.936;2023-04-09T00:50:30;100389.33;;;1.41;100.0
64025;BME280;50266;57.446;26.936;2023-04-09T00:51:30;100389.09;;;1.59;100.0
64025;BME280;50266;57.446;26.936;2023-04-09T00:52:30;100394.96;;;1.6;100.0
64025;BME280;50266;57.446;26.936;2023-04-09T00:53:30;100391.2;;;1.6;100.0
64025;BME280;50266;57.446;26.936;2023-04-09T00:54:30;100387.72;;;1.55;100.0
64025;BME280;50266;57.446;26.936;2023-04-09T00:55:30;100386.34;;;1.49;100.0
64025;BME280;50266;57.446;26.936;2023-04-09T00:56:30;100387.65;;;1.57;100.0
64025;BME280;50266;57.446;26.936;2023-04-09T00:57:31;100385.39;;;1.61;100.0
64025;BME280;50266;57.446;26.936;2023-04-09T00:58:30;100386.5;;;1.53;100.0
64025;BME280;50266;57.446;26.936;2023-04-09T00:59:30;100383.67;;;1.52;100.0
64025;BME280;50266;57.446;26.936;2023-04-09T01:00:30;100389.5;;;1.49;100.0
64025;BME280;50266;57.446;26.936;2023-04-09T01:01:31;100389.48;;;1.42;100.0
64025;BME280;50266;57.446;26.936;2023-04-09T01:02:31;100386.46;;;1.39;100.0
64025;BME280;50266;57.446;26.936;2023-04-09T01:03:31;100389.29;;;1.32;100.0
64025;BME280;50266;57.446;26.936;2023-04-09T01:04:31;100385.48;;;1.17;100.0
64025;BME280;50266;57.446;26.936;2023-04-09T01:05:43;100389.05;;;1.25;100.0
64025;BME280;50266;57.446;26.936;2023-04-09T01:06:42;100385.28;;;1.29;100.0
64025;BME280;50266;57.446;26.936;2023-04-09T01:08:00;100390.14;;;1.19;100.0
64025;BME280;50266;57.446;26.936;2023-04-09T01:09:42;100390.2;;;1.25;100.0
64025;BME280;50266;57.446;26.936;2023-04-09T01:10:52;100391.84;;;1.25;100.0
64025;BME280;50266;57.446;26.936;2023-04-09T01:12:00;100390.56;;;1.3;100.0
64025;BME280;50266;57.446;26.936;2023-04-09T01:12:57;100387.3;;;1.24;100.0
64025;BME280;50266;57.446;26.936;2023-04-09T01:14:55;100391.09;;;1.27;100.0
64025;BME280;50266;57.446;26.936;2023-04-09T01:15:52;100392.12;;;1.31;100.0
64025;BME280;50266;57.446;26.936;2023-04-09T01:16:59;100394.96;;;1.22;100.0
64025;BME280;50266;57.446;26.936;2023-04-09T01:17:58;100392.62;;;1.22;100.0
64025;BME280;50266;57.446;26.936;2023-04-09T01:19:01;100388.17;;;1.24;100.0
64025;BME280;50266;57.446;26.936;2023-04-09T01:20:02;100389.64;;;1.24;100.0
64025;BME280;50266;57.446;26.936;2023-04-09T01:21:10;100394.55;;;1.24;100.0
64025;BME280;50266;57.446;26.936;2023-04-09T01:22:03;100392.92;;;1.15;100.0
64025;BME280;50266;57.446;26.936;2023-04-09T01:23:10;100389.62;;;1.13;100.0
64025;BME280;50266;57.446;26.936;2023-04-09T01:27:16;100397.09;;;1.17;100.0
64025;BME280;50266;57.446;26.936;2023-04-09T01:28:17;100394.19;;;1.18;100.0
64025;BME280;50266;57.446;26.936;2023-04-09T01:29:17;100400.3;;;1.23;100.0
64025;BME280;50266;57.446;26.936;2023-04-09T01:30:17;100396.25;;;1.25;100.0
64025;BME280;50266;57.446;26.936;2023-04-09T01:31:17;100394.66;;;1.2;100.0
64025;BME280;50266;57.446;26.936;2023-04-09T01:32:17;100394.15;;;1.03;100.0
64025;BME280;50266;57.446;26.936;2023-04-09T01:33:17;100393.83;;;0.88;100.0
64025;BME280;50266;57.446;26.936;2023-04-09T01:34:17;100399.49;;;0.94;100.0
64025;BME280;50266;57.446;26.936;2023-04-09T01:35:17;100393.9;;;0.87;100.0
64025;BME280;50266;57.446;26.936;2023-04-09T01:36:17;100392.27;;;1.0;100.0
64025;BME280;50266;57.446;26.936;2023-04-09T01:37:17;100394.62;;;1.06;100.0
64025;BME280;50266;57.446;26.936;2023-04-09T01:38:17;100396.36;;;1.11;100.0
64025;BME280;50266;57.446;26.936;2023-04-09T01:39:17;100393.61;;;1.13;100.0
64025;BME280;50266;57.446;26.936;2023-04-09T01:40:17;100395.95;;;1.21;100.0
64025;BME280;50266;57.446;26.936;2023-04-09T01:41:18;100401.0;;;1.25;100.0
64025;BME280;50266;57.446;26.936;2023-04-09T01:42:17;100395.27;;;1.19;100.0
64025;BME280;50266;57.446;26.936;2023-04-09T01:43:17;100401.81;;;1.15;100.0
64025;BME280;50266;57.446;26.936;2023-04-09T01:44:17;100401.88;;;1.15;100.0
64025;BME280;50266;57.446;26.936;2023-04-09T01:45:17;100402.63;;;1.41;100.0
64025;BME280;50266;57.446;26.936;2023-04-09T01:46:17;100403.58;;;1.36;100.0
64025;BME280;50266;57.446;26.936;2023-04-09T01:47:17;100403.09;;;1.28;100.0
64025;BME280;50266;57.446;26.936;2023-04-09T01:48:17;100404.05;;;1.25;100.0
64025;BME280;50266;57.446;26.936;2023-04-09T01:49:17;100405.59;;;1.06;100.0
64025;BME280;50266;57.446;26.936;2023-04-09T01:50:17;100407.22;;;1.06;100.0
64025;BME280;50266;57.446;26.936;2023-04-09T01:51:18;100408.45;;;1.16;100.0
64025;BME280;50266;57.446;26.936;2023-04-09T01:52:17;100406.89;;;1.33;100.0
64025;BME280;50266;57.446;26.936;2023-04-09T01:53:17;100406.91;;;1.32;100.0
64025;BME280;50266;57.446;26.936;2023-04-09T01:54:17;100408.47;;;1.15;100.0
64025;BME280;50266;57.446;26.936;2023-04-09T01:55:17;100407.35;;;1.17;100.0
64025;BME280;50266;57.446;26.936;2023-04-09T01:56:17;100408.04;;;0.85;100.0
64025;BME280;50266;57.446;26.936;2023-04-09T01:57:17;100407.49;;;0.95;100.0
64025;BME280;50266;57.446;26.936;2023-04-09T01:58:17;100408.56;;;0.97;100.0
64025;BME280;50266;57.446;26.936;2023-04-09T01:59:17;100402.89;;;0.76;100.0
64025;BME280;50266;57.446;26.936;2023-04-09T02:00:17;100408.66;;;0.68;100.0
64025;BME280;50266;57.446;26.936;2023-04-09T02:01:29;100408.73;;;0.75;100.0
64025;BME280;50266;57.446;26.936;2023-04-09T02:02:19;100407.23;;;0.78;100.0
64025;BME280;50266;57.446;26.936;2023-04-09T02:03:22;100405.02;;;0.72;100.0
64025;BME280;50266;57.446;26.936;2023-04-09T02:04:37;100409.28;;;0.79;100.0
64025;BME280;50266;57.446;26.936;2023-04-09T02:05:24;100409.31;;;0.93;100.0
64025;BME280;50266;57.446;26.936;2023-04-09T02:06:28;100411.83;;;0.83;100.0
64025;BME280;50266;57.446;26.936;2023-04-09T02:07:29;100410.0;;;0.95;100.0
64025;BME280;50266;57.446;26.936;2023-04-09T02:08:30;100409.91;;;0.94;100.0
64025;BME280;50266;57.446;26.936;2023-04-09T02:09:30;100410.53;;;0.87;100.0
64025;BME280;50266;57.446;26.936;2023-04-09T02:10:30;100404.47;;;0.67;100.0
64025;BME280;50266;57.446;26.936;2023-04-09T02:11:31;100406.2;;;0.68;100.0
64025;BME280;50266;57.446;26.936;2023-04-09T02:12:30;100404.48;;;0.65;100.0
64025;BME280;50266;57.446;26.936;2023-04-09T02:13:31;100402.59;;;0.56;100.0
64025;BME280;50266;57.446;26.936;2023-04-09T02:14:31;100404.31;;;0.59;100.0
64025;BME280;50266;57.446;26.936;2023-04-09T02:15:31;100404.48;;;0.52;100.0
64025;BME280;50266;57.446;26.936;2023-04-09T02:16:31;100402.12;;;0.49;100.0
64025;BME280;50266;57.446;26.936;2023-04-09T02:17:31;100401.2;;;0.48;100.0
64025;BME280;50266;57.446;26.936;2023-04-09T02:18:31;100410.94;;;0.37;100.0
64025;BME280;50266;57.446;26.936;2023-04-09T02:19:37;100411.63;;;0.38;100.0
64025;BME280;50266;57.446;26.936;2023-04-09T02:20:34;100409.53;;;0.55;100.0
64025;BME280;50266;57.446;26.936;2023-04-09T02:21:34;100412.06;;;0.64;100.0
64025;BME280;50266;57.446;26.936;2023-04-09T02:22:34;100412.36;;;0.77;100.0
64025;BME280;50266;57.446;26.936;2023-04-09T02:23:34;100416.25;;;0.81;100.0
64025;BME280;50266;57.446;26.936;2023-04-09T02:24:34;100413.13;;;0.88;100.0
64025;BME280;50266;57.446;26.936;2023-04-09T02:25:34;100412.8;;;0.73;100.0
64025;BME280;50266;57.446;26.936;2023-04-09T02:26:34;100414.98;;;0.82;100.0
64025;BME280;50266;57.446;26.936;2023-04-09T02:27:34;100417.73;;;0.86;100.0
64025;BME280;50266;57.446;26.936;2023-04-09T02:28:34;100413.4;;;0.82;100.0
64025;BME280;50266;57.446;26.936;2023-04-09T02:29:34;100413.23;;;0.89;100.0
64025;BME280;50266;57.446;26.936;2023-04-09T02:30:34;100415.6;;;0.96;100.0
64025;BME280;50266;57.446;26.936;2023-04-09T02:31:34;100415.52;;;0.82;100.0
64025;BME280;50266;57.446;26.936;2023-04-09T02:32:34;100416.53;;;0.86;100.0
64025;BME280;50266;57.446;26.936;2023-04-09T02:33:34;100414.98;;;0.72;100.0
64025;BME280;50266;57.446;26.936;2023-04-09T02:34:34;100413.62;;;0.81;100.0
64025;BME280;50266;57.446;26.936;2023-04-09T02:35:34;100414.82;;;0.82;100.0
64025;BME280;50266;57.446;26.936;2023-04-09T02:36:34;100409.89;;;0.64;100.0
64025;BME280;50266;57.446;26.936;2023-04-09T02:37:34;100413.38;;;0.64;100.0
64025;BME280;50266;57.446;26.936;2023-04-09T02:38:34;100414.26;;;0.78;100.0
64025;BME280;50266;57.446;26.936;2023-04-09T02:39:34;100412.91;;;0.73;100.0
64025;BME280;50266;57.446;26.936;2023-04-09T02:40:34;100415.63;;;0.49;100.0
64025;BME280;50266;57.446;26.936;2023-04-09T02:41:34;100414.3;;;0.27;100.0
64025;BME280;50266;57.446;26.936;2023-04-09T02:42:34;100416.83;;;-0.03;100.0
64025;BME280;50266;57.446;26.936;2023-04-09T02:43:34;100414.41;;;0.12;100.0
64025;BME280;50266;57.446;26.936;2023-04-09T02:44:34;100414.94;;;0.28;100.0
64025;BME280;50266;57.446;26.936;2023-04-09T02:45:34;100412.31;;;0.3;100.0
64025;BME280;50266;57.446;26.936;2023-04-09T02:46:34;100413.09;;;0.21;100.0
64025;BME280;50266;57.446;26.936;2023-04-09T02:47:34;100412.67;;;0.1;100.0
64025;BME280;50266;57.446;26.936;2023-04-09T02:48:34;100417.05;;;0.36;100.0
64025;BME280;50266;57.446;26.936;2023-04-09T02:49:34;100411.34;;;0.53;100.0
64025;BME280;50266;57.446;26.936;2023-04-09T02:50:35;100410.48;;;0.46;100.0
64025;BME280;50266;57.446;26.936;2023-04-09T02:51:35;100416.65;;;0.51;100.0
64025;BME280;50266;57.446;26.936;2023-04-09T02:52:34;100408.47;;;0.47;100.0
64025;BME280;50266;57.446;26.936;2023-04-09T02:53:34;100409.22;;;0.47;100.0
64025;BME280;50266;57.446;26.936;2023-04-09T02:54:34;100407.62;;;0.5;100.0
64025;BME280;50266;57.446;26.936;2023-04-09T02:55:34;100413.41;;;0.43;100.0
64025;BME280;50266;57.446;26.936;2023-04-09T02:56:34;100415.3;;;0.36;100.0
64025;BME280;50266;57.446;26.936;2023-04-09T02:57:34;100412.8;;;0.29;100.0
64025;BME280;50266;57.446;26.936;2023-04-09T02:58:35;100412.48;;;0.34;100.0
64025;BME280;50266;57.446;26.936;2023-04-09T02:59:35;100414.02;;;0.4;100.0
64025;BME280;50266;57.446;26.936;2023-04-09T03:00:35;100410.91;;;0.39;100.0
64025;BME280;50266;57.446;26.936;2023-04-09T03:01:35;100413.03;;;0.42;100.0
64025;BME280;50266;57.446;26.936;2023-04-09T03:02:35;100409.85;;;0.6;100.0
64025;BME280;50266;57.446;26.936;2023-04-09T03:03:35;100408.55;;;0.62;100.0
64025;BME280;50266;57.446;26.936;2023-04-09T03:04:35;100409.44;;;0.47;100.0
64025;BME280;50266;57.446;26.936;2023-04-09T03:05:35;100414.58;;;0.38;100.0
64025;BME280;50266;57.446;26.936;2023-04-09T03:06:35;100411.57;;;0.21;100.0
64025;BME280;50266;57.446;26.936;2023-04-09T03:07:35;100408.11;;;0.24;100.0
64025;BME280;50266;57.446;26.936;2023-04-09T03:08:35;100408.23;;;0.2;100.0
64025;BME280;50266;57.446;26.936;2023-04-09T03:09:35;100407.16;;;0.18;100.0
64025;BME280;50266;57.446;26.936;2023-04-09T03:10:35;100406.77;;;0.2;100.0
64025;BME280;50266;57.446;26.936;2023-04-09T03:11:35;100408.95;;;0.27;100.0
64025;BME280;50266;57.446;26.936;2023-04-09T03:12:35;100411.66;;;0.35;100.0
64025;BME280;50266;57.446;26.936;2023-04-09T03:13:35;100414.01;;;0.43;100.0
64025;BME280;50266;57.446;26.936;2023-04-09T03:14:35;100415.14;;;0.5;100.0
64025;BME280;50266;57.446;26.936;2023-04-09T03:15:35;100410.3;;;0.34;100.0
64025;BME280;50266;57.446;26.936;2023-04-09T03:16:35;100409.66;;;0.39;100.0
64025;BME280;50266;57.446;26.936;2023-04-09T03:17:35;100409.62;;;0.38;100.0
64025;BME280;50266;57.446;26.936;2023-04-09T03:18:35;100411.98;;;0.31;100.0
64025;BME280;50266;57.446;26.936;2023-04-09T03:19:35;100411.63;;;0.26;100.0
64025;BME280;50266;57.446;26.936;2023-04-09T03:20:38;100409.92;;;0.14;100.0
64025;BME280;50266;57.446;26.936;2023-04-09T03:21:35;100414.09;;;0.04;100.0
64025;BME280;50266;57.446;26.936;2023-04-09T03:22:38;100405.6;;;0.1;100.0
64025;BME280;50266;57.446;26.936;2023-04-09T03:23:35;100411.64;;;0.16;100.0
64025;BME280;50266;57.446;26.936;2023-04-09T03:24:35;100409.28;;;0.13;100.0
64025;BME280;50266;57.446;26.936;2023-04-09T03:25:35;100411.34;;;0.2;100.0
64025;BME280;50266;57.446;26.936;2023-04-09T03:26:35;100409.62;;;0.25;100.0
64025;BME280;50266;57.446;26.936;2023-04-09T03:27:35;100408.72;;;0.35;100.0
64025;BME280;50266;57.446;26.936;2023-04-09T03:28:35;100414.34;;;0.47;100.0
64025;BME280;50266;57.446;26.936;2023-04-09T03:29:35;100410.52;;;0.49;100.0
64025;BME280;50266;57.446;26.936;2023-04-09T03:30:35;100413.31;;;0.57;100.0
64025;BME280;50266;57.446;26.936;2023-04-09T03:31:35;100412.83;;;0.46;100.0
64025;BME280;50266;57.446;26.936;2023-04-09T03:32:35;100413.61;;;0.44;100.0
64025;BME280;50266;57.446;26.936;2023-04-09T03:33:35;100415.12;;;0.45;100.0
64025;BME280;50266;57.446;26.936;2023-04-09T03:34:35;100412.66;;;0.33;100.0
64025;BME280;50266;57.446;26.936;2023-04-09T03:35:35;100416.89;;;0.29;100.0
64025;BME280;50266;57.446;26.936;2023-04-09T03:36:35;100415.49;;;0.19;100.0
64025;BME280;50266;57.446;26.936;2023-04-09T03:37:35;100413.72;;;0.15;100.0
64025;BME280;50266;57.446;26.936;2023-04-09T03:38:35;100413.64;;;0.19;100.0
64025;BME280;50266;57.446;26.936;2023-04-09T03:39:35;100415.92;;;0.28;100.0
64025;BME280;50266;57.446;26.936;2023-04-09T03:40:35;100417.09;;;0.37;100.0
64025;BME280;50266;57.446;26.936;2023-04-09T03:41:35;100418.15;;;0.4;100.0
64025;BME280;50266;57.446;26.936;2023-04-09T03:42:35;100414.45;;;0.47;100.0
64025;BME280;50266;57.446;26.936;2023-04-09T03:43:35;100416.33;;;0.37;100.0
64025;BME280;50266;57.446;26.936;2023-04-09T03:44:35;100413.49;;;0.17;100.0
64025;BME280;50266;57.446;26.936;2023-04-09T03:45:35;100412.69;;;0.41;100.0
64025;BME280;50266;57.446;26.936;2023-04-09T03:46:35;100413.65;;;0.51;100.0
64025;BME280;50266;57.446;26.936;2023-04-09T03:47:35;100418.29;;;0.5;100.0
64025;BME280;50266;57.446;26.936;2023-04-09T03:48:35;100410.05;;;0.57;100.0
64025;BME280;50266;57.446;26.936;2023-04-09T03:49:35;100414.67;;;0.58;100.0
64025;BME280;50266;57.446;26.936;2023-04-09T03:50:39;100410.27;;;0.58;100.0
64025;BME280;50266;57.446;26.936;2023-04-09T03:51:35;100417.27;;;0.49;100.0
64025;BME280;50266;57.446;26.936;2023-04-09T03:52:35;100411.18;;;0.42;100.0
64025;BME280;50266;57.446;26.936;2023-04-09T03:53:35;100413.8;;;0.28;100.0
64025;BME280;50266;57.446;26.936;2023-04-09T03:54:35;100414.98;;;0.2;100.0
64025;BME280;50266;57.446;26.936;2023-04-09T03:55:36;100412.91;;;0.35;100.0
64025;BME280;50266;57.446;26.936;2023-04-09T03:56:36;100417.34;;;0.47;100.0
64025;BME280;50266;57.446;26.936;2023-04-09T03:57:36;100416.34;;;0.5;100.0
64025;BME280;50266;57.446;26.936;2023-04-09T03:58:36;100413.8;;;0.47;100.0
64025;BME280;50266;57.446;26.936;2023-04-09T03:59:36;100412.62;;;0.5;100.0
64025;BME280;50266;57.446;26.936;2023-04-09T04:00:36;100413.22;;;0.56;100.0
64025;BME280;50266;57.446;26.936;2023-04-09T04:01:36;100416.55;;;0.62;100.0
64025;BME280;50266;57.446;26.936;2023-04-09T04:02:36;100417.83;;;0.76;100.0
64025;BME280;50266;57.446;26.936;2023-04-09T04:03:36;100417.45;;;0.76;100.0
64025;BME280;50266;57.446;26.936;2023-04-09T04:04:36;100414.02;;;0.8;100.0
64025;BME280;50266;57.446;26.936;2023-04-09T04:05:36;100416.56;;;0.84;100.0
64025;BME280;50266;57.446;26.936;2023-04-09T04:06:36;100415.9;;;0.85;100.0
64025;BME280;50266;57.446;26.936;2023-04-09T04:07:36;100413.72;;;0.94;100.0
64025;BME280;50266;57.446;26.936;2023-04-09T04:08:36;100415.73;;;0.83;100.0
64025;BME280;50266;57.446;26.936;2023-04-09T04:09:36;100414.78;;;0.88;100.0
64025;BME280;50266;57.446;26.936;2023-04-09T04:10:36;100414.25;;;0.85;100.0
64025;BME280;50266;57.446;26.936;2023-04-09T04:11:36;100416.95;;;0.93;100.0
64025;BME280;50266;57.446;26.936;2023-04-09T04:12:36;100414.81;;;0.98;100.0
64025;BME280;50266;57.446;26.936;2023-04-09T04:13:36;100414.16;;;0.98;100.0
64025;BME280;50266;57.446;26.936;2023-04-09T04:14:36;100415.86;;;1.02;100.0
64025;BME280;50266;57.446;26.936;2023-04-09T04:15:39;100414.12;;;1.01;100.0
64025;BME280;50266;57.446;26.936;2023-04-09T04:16:36;100416.72;;;0.98;100.0
64025;BME280;50266;57.446;26.936;2023-04-09T04:17:36;100413.89;;;0.98;100.0
64025;BME280;50266;57.446;26.936;2023-04-09T04:18:36;100419.49;;;0.99;100.0
64025;BME280;50266;57.446;26.936;2023-04-09T04:19:36;100416.34;;;0.99;100.0
64025;BME280;50266;57.446;26.936;2023-04-09T04:20:36;100420.05;;;1.1;100.0
64025;BME280;50266;57.446;26.936;2023-04-09T04:21:36;100416.49;;;1.1;100.0
64025;BME280;50266;57.446;26.936;2023-04-09T04:22:36;100421.28;;;0.96;100.0
64025;BME280;50266;57.446;26.936;2023-04-09T04:23:36;100422.69;;;0.92;100.0
64025;BME280;50266;57.446;26.936;2023-04-09T04:24:36;100419.67;;;0.98;100.0
64025;BME280;50266;57.446;26.936;2023-04-09T04:25:36;100419.64;;;0.86;100.0
64025;BME280;50266;57.446;26.936;2023-04-09T04:26:36;100417.53;;;1.06;100.0
64025;BME280;50266;57.446;26.936;2023-04-09T04:27:36;100421.55;;;1.01;100.0
64025;BME280;50266;57.446;26.936;2023-04-09T04:28:36;100418.73;;;1.1;100.0
64025;BME280;50266;57.446;26.936;2023-04-09T04:29:36;100417.61;;;1.27;100.0
64025;BME280;50266;57.446;26.936;2023-04-09T04:30:36;100417.83;;;1.31;100.0
64025;BME280;50266;57.446;26.936;2023-04-09T04:31:36;100418.91;;;1.45;100.0
64025;BME280;50266;57.446;26.936;2023-04-09T04:32:36;100416.41;;;1.4;100.0
64025;BME280;50266;57.446;26.936;2023-04-09T04:33:37;100417.94;;;1.43;100.0
64025;BME280;50266;57.446;26.936;2023-04-09T04:34:36;100415.64;;;1.36;100.0
64025;BME280;50266;57.446;26.936;2023-04-09T04:35:36;100417.89;;;1.3;100.0
64025;BME280;50266;57.446;26.936;2023-04-09T04:36:36;100417.89;;;1.43;100.0
64025;BME280;50266;57.446;26.936;2023-04-09T04:37:36;100421.64;;;1.44;100.0
64025;BME280;50266;57.446;26.936;2023-04-09T04:38:36;100421.0;;;1.48;100.0
64025;BME280;50266;57.446;26.936;2023-04-09T04:39:36;100424.05;;;1.53;100.0
64025;BME280;50266;57.446;26.936;2023-04-09T04:40:36;100419.5;;;1.54;100.0
64025;BME280;50266;57.446;26.936;2023-04-09T04:41:36;100417.56;;;1.64;100.0
64025;BME280;50266;57.446;26.936;2023-04-09T04:42:36;100422.52;;;1.64;100.0
64025;BME280;50266;57.446;26.936;2023-04-09T04:43:36;100418.22;;;1.64;100.0
64025;BME280;50266;57.446;26.936;2023-04-09T04:44:36;100420.33;;;1.7;100.0
64025;BME280;50266;57.446;26.936;2023-04-09T04:45:36;100420.52;;;1.72;100.0
64025;BME280;50266;57.446;26.936;2023-04-09T04:46:36;100421.19;;;1.75;100.0
64025;BME280;50266;57.446;26.936;2023-04-09T04:47:36;100424.99;;;1.76;100.0
64025;BME280;50266;57.446;26.936;2023-04-09T04:48:36;100422.58;;;1.77;100.0
64025;BME280;50266;57.446;26.936;2023-04-09T04:49:36;100422.71;;;1.83;100.0
64025;BME280;50266;57.446;26.936;2023-04-09T04:50:36;100427.8;;;1.87;100.0
64025;BME280;50266;57.446;26.936;2023-04-09T04:51:36;100428.34;;;1.98;100.0
64025;BME280;50266;57.446;26.936;2023-04-09T04:52:36;100422.95;;;2.0;100.0
64025;BME280;50266;57.446;26.936;2023-04-09T04:53:36;100427.13;;;2.05;100.0
64025;BME280;50266;57.446;26.936;2023-04-09T04:54:36;100424.01;;;2.06;100.0
64025;BME280;50266;57.446;26.936;2023-04-09T04:55:37;100423.61;;;2.12;100.0
64025;BME280;50266;57.446;26.936;2023-04-09T04:56:37;100421.3;;;2.2;100.0
64025;BME280;50266;57.446;26.936;2023-04-09T04:57:37;100425.57;;;2.25;100.0
64025;BME280;50266;57.446;26.936;2023-04-09T04:58:36;100420.02;;;2.27;100.0
64025;BME280;50266;57.446;26.936;2023-04-09T04:59:37;100421.89;;;2.31;100.0
64025;BME280;50266;57.446;26.936;2023-04-09T05:00:37;100420.01;;;2.32;100.0
64025;BME280;50266;57.446;26.936;2023-04-09T05:01:37;100422.22;;;2.37;100.0
64025;BME280;50266;57.446;26.936;2023-04-09T05:02:37;100427.65;;;2.42;100.0
64025;BME280;50266;57.446;26.936;2023-04-09T05:03:37;100424.84;;;2.44;100.0
64025;BME280;50266;57.446;26.936;2023-04-09T05:04:37;100424.77;;;2.52;100.0
64025;BME280;50266;57.446;26.936;2023-04-09T05:05:37;100420.85;;;2.51;100.0
64025;BME280;50266;57.446;26.936;2023-04-09T05:06:37;100417.95;;;2.57;100.0
64025;BME280;50266;57.446;26.936;2023-04-09T05:07:37;100419.58;;;2.61;100.0
64025;BME280;50266;57.446;26.936;2023-04-09T05:08:37;100417.17;;;2.64;100.0
64025;BME280;50266;57.446;26.936;2023-04-09T05:09:37;100417.45;;;2.63;100.0
64025;BME280;50266;57.446;26.936;2023-04-09T05:10:39;100418.69;;;2.72;100.0
64025;BME280;50266;57.446;26.936;2023-04-09T05:11:37;100422.37;;;2.74;100.0
64025;BME280;50266;57.446;26.936;2023-04-09T05:12:37;100419.03;;;2.8;100.0
64025;BME280;50266;57.446;26.936;2023-04-09T05:13:37;100417.55;;;2.86;100.0
64025;BME280;50266;57.446;26.936;2023-04-09T05:14:37;100416.75;;;2.91;100.0
64025;BME280;50266;57.446;26.936;2023-04-09T05:15:37;100415.98;;;2.94;100.0
64025;BME280;50266;57.446;26.936;2023-04-09T05:16:37;100421.42;;;2.99;100.0
64025;BME280;50266;57.446;26.936;2023-04-09T05:17:37;100418.53;;;3.03;100.0
64025;BME280;50266;57.446;26.936;2023-04-09T05:18:37;100417.74;;;3.02;100.0
64025;BME280;50266;57.446;26.936;2023-04-09T05:19:37;100416.19;;;3.12;100.0
64025;BME280;50266;57.446;26.936;2023-04-09T05:20:37;100417.88;;;3.15;100.0